Time;durP1;ratioP1;P1;durP2;ratioP2;P2;SDS_P1;SDS_P2;PMS_P1;PMS_P2;Temp;Humidity;BMP_temperature;BMP_pressure;BME280_temperature;BME280_humidity;BME280_pressure;Samples;Min_cycle;Max_cycle;Signal;HPM_P1;HPM_P2
2023/12/16 00:02:18;;;;;;;6.93;2.30;;;;;;;19.17;55.00;103855.75;5003278;28;20026;-38
2023/12/16 00:04:44;;;;;;;9.35;2.75;;;;;;;19.16;54.98;103850.47;5002668;28;20026;-37
2023/12/16 00:07:09;;;;;;;7.88;2.42;;;;;;;19.14;54.63;103858.09;5001910;28;20365;-38
2023/12/16 00:09:35;;;;;;;9.15;2.45;;;;;;;19.12;54.83;103851.97;5002818;28;20068;-36
2023/12/16 00:12:00;;;;;;;5.75;2.15;;;;;;;19.11;54.95;103850.28;5001271;28;20058;-39
2023/12/16 00:14:25;;;;;;;9.00;2.28;;;;;;;19.08;54.93;103849.63;5004384;28;20117;-36
2023/12/16 00:16:51;;;;;;;7.60;2.25;;;;;;;19.06;54.75;103842.66;5004390;28;20058;-37
2023/12/16 00:19:16;;;;;;;7.75;2.22;;;;;;;19.05;54.80;103844.53;5004532;28;20030;-38
2023/12/16 00:21:42;;;;;;;7.82;2.33;;;;;;;19.04;54.85;103839.28;4993451;28;20053;-38
2023/12/16 00:24:07;;;;;;;7.60;2.85;;;;;;;19.02;54.60;103846.91;4983330;28;20555;-37
2023/12/16 00:26:33;;;;;;;6.00;2.28;;;;;;;19.02;54.76;103847.72;4981266;28;20033;-38
2023/12/16 00:28:58;;;;;;;9.57;2.35;;;;;;;18.99;54.92;103839.91;4981600;28;20027;-37
2023/12/16 00:31:23;;;;;;;8.73;2.63;;;;;;;18.99;55.29;103848.16;4989919;28;20492;-37
2023/12/16 00:33:49;;;;;;;6.55;2.50;;;;;;;18.97;55.20;103847.53;4963167;28;20029;-38
2023/12/16 00:36:15;;;;;;;7.55;2.65;;;;;;;18.97;55.32;103843.91;4984487;28;20101;-38
2023/12/16 00:38:40;;;;;;;7.22;2.60;;;;;;;18.95;55.21;103843.31;4980039;28;20034;-37
2023/12/16 00:41:05;;;;;;;8.18;2.22;;;;;;;18.95;55.06;103837.81;4984300;28;20113;-38
2023/12/16 00:43:31;;;;;;;6.97;2.75;;;;;;;18.92;55.35;103834.41;4982884;28;20481;-37
2023/12/16 00:45:56;;;;;;;6.10;2.22;;;;;;;18.91;55.43;103838.22;4983677;28;20109;-38
2023/12/16 00:48:22;;;;;;;7.97;2.25;;;;;;;18.89;55.32;103833.94;4964393;28;20038;-38
2023/12/16 00:50:47;;;;;;;6.25;2.20;;;;;;;18.89;55.28;103825.72;4988758;28;20030;-38
2023/12/16 00:53:13;;;;;;;7.28;2.65;;;;;;;18.86;55.50;103828.88;4984723;28;20022;-37
2023/12/16 00:55:41;;;;;;;10.68;2.63;;;;;;;18.86;55.66;103828.88;4987061;28;20034;-37
2023/12/16 00:58:09;;;;;;;6.40;2.17;;;;;;;18.85;55.76;103829.94;4981541;28;20034;-38
2023/12/16 01:00:35;;;;;;;5.88;2.33;;;;;;;18.84;55.33;103826.34;4985976;28;20057;-38
2023/12/16 01:03:00;;;;;;;7.00;2.20;;;;;;;18.83;55.81;103830.13;4983964;28;20029;-37
2023/12/16 01:05:26;;;;;;;7.85;2.25;;;;;;;18.82;55.65;103827.59;4982838;28;20030;-37
2023/12/16 01:07:52;;;;;;;7.43;2.42;;;;;;;18.80;56.08;103830.56;4982549;28;20070;-38
2023/12/16 01:10:17;;;;;;;6.40;2.20;;;;;;;18.79;55.98;103828.88;4965911;28;20030;-38
2023/12/16 01:12:42;;;;;;;6.38;2.03;;;;;;;18.79;56.10;103833.53;4970088;28;20022;-38
2023/12/16 01:15:09;;;;;;;6.10;2.55;;;;;;;18.77;56.28;103826.34;4983248;28;20121;-38
2023/12/16 01:17:34;;;;;;;7.18;2.22;;;;;;;18.78;56.28;103829.94;4980224;28;20450;-38
2023/12/16 01:19:59;;;;;;;7.05;2.17;;;;;;;18.76;56.44;103821.91;4986957;28;20235;-39
2023/12/16 01:22:25;;;;;;;9.20;2.88;;;;;;;18.74;56.45;103818.50;5000275;28;20042;-38
2023/12/16 01:24:50;;;;;;;8.18;2.88;;;;;;;18.74;56.27;103815.75;5002670;28;20046;-37
2023/12/16 01:27:16;;;;;;;5.78;2.30;;;;;;;18.73;56.45;103816.81;5005037;28;20112;-36
2023/12/16 01:29:41;;;;;;;5.40;2.40;;;;;;;18.73;55.98;103811.31;5006635;28;20037;-36
2023/12/16 01:32:07;;;;;;;10.60;2.30;;;;;;;18.73;56.14;103810.47;5002071;28;20121;-36
2023/12/16 01:34:32;;;;;;;6.00;2.40;;;;;;;18.73;56.23;103815.97;5007150;28;20029;-37
2023/12/16 01:36:58;;;;;;;6.28;2.40;;;;;;;18.71;56.46;103823.56;5003882;28;20032;-37
2023/12/16 01:39:24;;;;;;;7.15;2.58;;;;;;;18.68;56.49;103822.09;5005782;28;20029;-37
2023/12/16 01:41:50;;;;;;;8.25;2.63;;;;;;;18.67;56.46;103825.06;4988929;28;20326;-38
2023/12/16 01:44:15;;;;;;;5.75;2.30;;;;;;;18.67;56.62;103822.31;5014218;28;20516;-37
2023/12/16 01:46:41;;;;;;;8.52;2.38;;;;;;;18.66;56.70;103817.88;5008087;28;20026;-38
2023/12/16 01:49:06;;;;;;;8.05;2.38;;;;;;;18.65;56.81;103813.44;5010052;28;20118;-37
2023/12/16 01:51:32;;;;;;;5.75;2.40;;;;;;;18.63;56.60;103808.16;4979195;28;20030;-38
2023/12/16 01:53:58;;;;;;;10.38;2.80;;;;;;;18.65;56.62;103817.03;4975580;28;20033;-37
2023/12/16 01:56:24;;;;;;;6.00;2.58;;;;;;;18.63;56.43;103816.38;5002309;28;20026;-37
2023/12/16 01:58:49;;;;;;;6.93;2.60;;;;;;;18.63;56.69;103815.56;5003745;28;20038;-37
2023/12/16 02:01:15;;;;;;;9.05;2.90;;;;;;;18.63;56.61;103816.38;4973621;28;20033;-37
2023/12/16 02:03:41;;;;;;;9.77;3.28;;;;;;;18.62;56.57;103809.19;4987276;28;20457;-37
2023/12/16 02:06:07;;;;;;;5.65;2.60;;;;;;;18.61;56.63;103813.00;5009404;28;20580;-38
2023/12/16 02:08:32;;;;;;;9.05;2.75;;;;;;;18.60;56.62;103809.41;5008316;28;20037;-38
2023/12/16 02:10:58;;;;;;;9.70;3.13;;;;;;;18.59;56.76;103818.72;5006567;28;20034;-37
2023/12/16 02:13:24;;;;;;;10.52;3.05;;;;;;;18.58;56.60;103803.28;4998958;28;20037;-37
2023/12/16 02:15:49;;;;;;;8.18;3.30;;;;;;;18.57;56.78;103811.72;5000691;28;20030;-37
2023/12/16 02:18:15;;;;;;;10.05;3.08;;;;;;;18.55;56.87;103805.59;5004806;28;20038;-37
2023/12/16 02:20:41;;;;;;;8.63;2.83;;;;;;;18.53;56.58;103808.56;4983321;28;20049;-36
2023/12/16 02:23:15;;;;;;;8.20;3.30;;;;;;;18.52;56.85;103809.59;4948737;28;20029;-37
2023/12/16 02:25:42;;;;;;;9.25;2.97;;;;;;;18.52;57.00;103823.34;4964086;28;20653;-37
2023/12/16 02:28:08;;;;;;;10.68;2.83;;;;;;;18.51;57.05;103823.56;4964029;28;20034;-37
2023/12/16 02:30:33;;;;;;;7.88;3.25;;;;;;;18.49;56.97;103817.41;4975590;28;20662;-37
2023/12/16 02:32:59;;;;;;;6.75;2.72;;;;;;;18.48;56.98;103819.34;4977103;28;20750;-37
2023/12/16 02:35:24;;;;;;;9.48;3.03;;;;;;;18.47;57.38;103825.88;4977391;28;20173;-37
2023/12/16 02:37:49;;;;;;;7.50;2.80;;;;;;;18.46;57.20;103826.09;4981672;28;20018;-36
2023/12/16 02:40:15;;;;;;;8.07;2.83;;;;;;;18.44;57.55;103831.75;4963903;28;20045;-38
2023/12/16 02:42:40;;;;;;;8.15;3.20;;;;;;;18.44;57.51;103827.13;4981735;28;20303;-39
2023/12/16 02:45:06;;;;;;;7.13;2.70;;;;;;;18.44;57.44;103826.28;4977734;28;20439;-37
2023/12/16 02:47:31;;;;;;;5.57;2.35;;;;;;;18.43;57.44;103822.69;4979242;28;20122;-37
2023/12/16 02:49:57;;;;;;;6.85;2.78;;;;;;;18.43;57.48;103819.13;4981743;28;20128;-38
2023/12/16 02:52:22;;;;;;;8.73;2.88;;;;;;;18.43;57.67;103816.38;4963241;28;20014;-38
2023/12/16 02:54:48;;;;;;;6.75;2.75;;;;;;;18.42;57.79;103810.00;4980135;28;20030;-37
2023/12/16 02:57:13;;;;;;;8.68;3.17;;;;;;;18.43;57.72;103811.72;4982024;28;20558;-38
2023/12/16 02:59:39;;;;;;;6.25;2.83;;;;;;;18.43;57.73;103802.63;4963585;28;20064;-36
2023/12/16 03:02:04;;;;;;;8.32;2.60;;;;;;;18.43;57.66;103805.38;4981254;28;20026;-37
2023/12/16 03:04:29;;;;;;;9.55;3.30;;;;;;;18.43;57.40;103795.22;4978832;28;20909;-36
2023/12/16 03:06:55;;;;;;;9.25;2.67;;;;;;;18.42;57.56;103796.28;4978692;28;20027;-37
2023/12/16 03:09:20;;;;;;;8.82;2.97;;;;;;;18.42;57.54;103801.78;4979614;28;20283;-37
2023/12/16 03:11:46;;;;;;;8.23;2.85;;;;;;;18.41;57.55;103800.06;4978982;28;20034;-38
2023/12/16 03:14:11;;;;;;;6.95;2.95;;;;;;;18.41;57.36;103797.34;4981795;28;20101;-37
2023/12/16 03:16:36;;;;;;;7.72;2.83;;;;;;;18.40;57.41;103800.28;4980689;28;20581;-38
2023/12/16 03:19:02;;;;;;;10.63;3.03;;;;;;;18.39;57.59;103807.69;4958803;28;20068;-37
2023/12/16 03:21:28;;;;;;;10.98;3.17;;;;;;;18.40;57.55;103805.78;4992650;28;20040;-37
2023/12/16 03:23:53;;;;;;;9.20;2.75;;;;;;;18.38;57.80;103810.63;4984242;28;20061;-37
2023/12/16 03:26:20;;;;;;;12.02;3.10;;;;;;;18.37;57.61;103806.19;4998510;28;20030;-38
2023/12/16 03:28:45;;;;;;;7.93;3.35;;;;;;;18.35;57.96;103811.06;4984438;28;20096;-38
2023/12/16 03:31:10;;;;;;;11.85;3.33;;;;;;;18.36;57.61;103818.25;5010328;28;20038;-38
2023/12/16 03:33:36;;;;;;;7.32;2.90;;;;;;;18.35;57.54;103822.03;5000981;28;20369;-37
2023/12/16 03:36:01;;;;;;;9.52;2.83;;;;;;;18.34;57.82;103817.59;4999081;28;20499;-36
2023/12/16 03:38:27;;;;;;;12.10;3.25;;;;;;;18.32;57.72;103815.06;5003002;28;20034;-37
2023/12/16 03:40:52;;;;;;;9.07;3.13;;;;;;;18.32;57.96;103805.97;4999910;28;20419;-37
2023/12/16 03:43:18;;;;;;;9.23;3.28;;;;;;;18.31;57.59;103802.38;5000041;28;20096;-38
2023/12/16 03:45:43;;;;;;;8.10;2.97;;;;;;;18.30;57.63;103806.19;4981505;28;20152;-38
2023/12/16 03:48:09;;;;;;;7.53;3.00;;;;;;;18.30;57.65;103806.19;4992924;28;20033;-38
2023/12/16 03:50:34;;;;;;;11.20;2.90;;;;;;;18.28;57.94;103806.41;5001280;28;20037;-39
2023/12/16 03:53:00;;;;;;;9.95;2.97;;;;;;;18.28;57.92;103806.41;5000632;28;20427;-38
2023/12/16 03:55:25;;;;;;;10.07;3.42;;;;;;;18.26;57.61;103813.16;5009661;28;20026;-36
2023/12/16 03:57:50;;;;;;;8.63;3.30;;;;;;;18.25;57.95;103800.47;4989547;28;20514;-37
2023/12/16 04:00:16;;;;;;;7.43;2.70;;;;;;;18.24;58.08;103793.28;5001800;28;20057;-38
2023/12/16 04:02:41;;;;;;;10.75;3.25;;;;;;;18.23;58.10;103802.56;5003846;28;20880;-37
2023/12/16 04:05:07;;;;;;;8.27;3.05;;;;;;;18.22;57.96;103801.75;5004401;28;20037;-38
2023/12/16 04:07:33;;;;;;;9.15;3.00;;;;;;;18.21;58.08;103793.69;5004829;28;20501;-37
2023/12/16 04:09:59;;;;;;;11.45;3.15;;;;;;;18.20;58.00;103792.03;5009889;28;20140;-38
2023/12/16 04:12:24;;;;;;;7.63;2.88;;;;;;;18.19;58.11;103791.16;5012847;28;20418;-36
2023/12/16 04:14:50;;;;;;;8.55;3.28;;;;;;;18.19;58.04;103793.91;5016370;28;20021;-37
2023/12/16 04:17:15;;;;;;;9.50;3.00;;;;;;;18.20;58.16;103795.59;5015937;28;20033;-39
2023/12/16 04:19:49;;;;;;;12.73;3.63;;;;;;;18.19;58.01;103784.84;5013214;28;20030;-37
2023/12/16 04:22:14;;;;;;;9.48;2.92;;;;;;;18.18;58.04;103783.97;5000368;28;20050;-37
2023/12/16 04:24:40;;;;;;;10.40;3.17;;;;;;;18.17;58.08;103781.44;5005513;28;20030;-36
2023/12/16 04:27:05;;;;;;;9.43;3.53;;;;;;;18.15;58.04;103775.31;5004328;28;20112;-37
2023/12/16 04:29:30;;;;;;;10.65;3.28;;;;;;;18.14;58.30;103779.97;5002200;28;20580;-38
2023/12/16 04:31:56;;;;;;;11.25;3.33;;;;;;;18.14;58.04;103782.69;5006070;28;20454;-37
2023/12/16 04:34:21;;;;;;;8.75;3.25;;;;;;;18.13;58.16;103778.25;5003583;28;20030;-37
2023/12/16 04:36:47;;;;;;;7.70;3.17;;;;;;;18.11;58.12;103783.09;4986314;28;20030;-37
2023/12/16 04:39:12;;;;;;;7.10;3.00;;;;;;;18.09;58.37;103788.81;5003844;28;20367;-37
2023/12/16 04:41:38;;;;;;;10.40;3.15;;;;;;;18.08;58.42;103783.53;5001629;28;20433;-36
2023/12/16 04:44:04;;;;;;;7.45;2.92;;;;;;;18.07;58.36;103787.31;5003637;28;20474;-37
2023/12/16 04:46:29;;;;;;;14.05;3.28;;;;;;;18.05;58.20;103793.03;5004347;28;20045;-38
2023/12/16 04:48:54;;;;;;;12.02;3.40;;;;;;;18.05;58.35;103793.03;5004102;28;20029;-37
2023/12/16 04:51:20;;;;;;;11.23;3.33;;;;;;;18.04;58.31;103788.59;5002891;28;20433;-37
2023/12/16 04:53:45;;;;;;;12.30;3.35;;;;;;;18.03;58.32;103788.78;5002527;28;20018;-37
2023/12/16 04:56:11;;;;;;;11.05;3.03;;;;;;;18.03;58.52;103791.53;5003481;28;20029;-37
2023/12/16 04:58:36;;;;;;;12.40;3.33;;;;;;;18.02;58.48;103792.59;4986075;28;20029;-38
2023/12/16 05:01:02;;;;;;;10.75;3.25;;;;;;;18.01;58.61;103802.69;5005437;28;20025;-37
2023/12/16 05:03:27;;;;;;;10.80;3.45;;;;;;;18.01;58.58;103793.63;5004411;28;20054;-38
2023/12/16 05:05:52;;;;;;;11.32;3.08;;;;;;;18.00;58.56;103792.81;5003001;28;20124;-38
2023/12/16 05:08:20;;;;;;;12.30;3.42;;;;;;;17.99;58.45;103802.06;5008661;28;20437;-38
2023/12/16 05:10:47;;;;;;;12.25;3.30;;;;;;;17.99;58.62;103806.69;5003671;28;20459;-37
2023/12/16 05:13:16;;;;;;;9.52;3.60;;;;;;;17.96;58.64;103803.34;4983723;28;20025;-38
2023/12/16 05:15:41;;;;;;;8.05;3.15;;;;;;;17.96;58.92;103797.00;5002122;28;20026;-38
2023/12/16 05:18:07;;;;;;;9.27;2.90;;;;;;;17.96;58.90;103797.84;5004115;28;20037;-38
2023/12/16 05:20:33;;;;;;;7.68;2.85;;;;;;;17.94;58.88;103797.19;5002680;28;20046;-38
2023/12/16 05:23:02;;;;;;;10.65;3.58;;;;;;;17.94;59.06;103786.22;4970753;28;20033;-36
2023/12/16 05:25:28;;;;;;;8.18;3.10;;;;;;;17.93;58.86;103787.25;5000348;28;20471;-38
2023/12/16 05:27:54;;;;;;;9.48;3.05;;;;;;;17.93;59.09;103780.91;5005522;28;20029;-38
2023/12/16 05:30:19;;;;;;;10.27;3.65;;;;;;;17.93;58.86;103784.50;5009791;28;20177;-39
2023/12/16 05:32:45;;;;;;;11.43;3.30;;;;;;;17.92;59.09;103781.97;5007376;28;20143;-37
2023/12/16 05:35:10;;;;;;;9.80;2.95;;;;;;;17.92;58.95;103784.72;5008408;28;20033;-37
2023/12/16 05:37:35;;;;;;;7.55;3.22;;;;;;;17.94;59.22;103775.25;4984619;28;20083;-36
2023/12/16 05:40:01;;;;;;;9.85;3.30;;;;;;;17.99;59.19;103774.63;4999104;28;20033;-37
2023/12/16 05:42:26;;;;;;;12.10;3.65;;;;;;;18.05;59.20;103783.94;5002620;28;20510;-37
2023/12/16 05:44:51;;;;;;;7.68;2.80;;;;;;;18.10;59.18;103776.78;4983946;28;20120;-36
2023/12/16 05:47:17;;;;;;;9.02;3.20;;;;;;;18.18;59.11;103777.66;4999898;28;20030;-38
2023/12/16 05:49:43;;;;;;;7.38;2.80;;;;;;;18.25;59.05;103784.00;5004025;28;20309;-37
2023/12/16 05:52:09;;;;;;;10.63;3.20;;;;;;;18.32;58.83;103778.50;4983266;28;20022;-36
2023/12/16 05:54:34;;;;;;;10.52;3.30;;;;;;;18.39;58.74;103782.97;5007240;28;20034;-37
2023/12/16 05:57:00;;;;;;;8.48;3.53;;;;;;;18.47;58.69;103781.94;4985135;28;20053;-37
2023/12/16 05:59:25;;;;;;;9.98;3.40;;;;;;;18.53;58.59;103786.59;5001016;28;20033;-38
2023/12/16 06:01:51;;;;;;;12.55;3.67;;;;;;;18.63;58.64;103790.84;5005841;28;20035;-36
2023/12/16 06:04:16;;;;;;;7.07;3.13;;;;;;;18.72;58.70;103789.56;5001586;28;20088;-37
2023/12/16 06:06:42;;;;;;;8.65;3.20;;;;;;;18.81;58.65;103790.19;5007758;28;20068;-38
2023/12/16 06:09:07;;;;;;;10.73;3.00;;;;;;;18.91;58.50;103790.66;5003142;28;20026;-39
2023/12/16 06:11:33;;;;;;;9.43;3.20;;;;;;;19.01;58.28;103795.72;4998795;28;20765;-37
2023/12/16 06:13:59;;;;;;;7.25;3.28;;;;;;;19.08;58.25;103802.91;5002528;28;20095;-36
2023/12/16 06:16:24;;;;;;;9.57;3.28;;;;;;;19.14;58.30;103808.59;5008409;28;20025;-38
2023/12/16 06:18:50;;;;;;;9.23;3.38;;;;;;;19.17;58.18;103802.69;5000791;28;20088;-37
2023/12/16 06:21:15;;;;;;;9.57;3.17;;;;;;;19.18;57.93;103802.47;5011538;28;20104;-37
2023/12/16 06:23:41;;;;;;;8.07;3.17;;;;;;;19.18;57.95;103793.38;5008298;28;20032;-38
2023/12/16 06:26:06;;;;;;;9.98;3.60;;;;;;;19.18;58.20;103796.13;5001509;28;20506;-37
2023/12/16 06:28:32;;;;;;;7.80;3.22;;;;;;;19.16;58.01;103793.59;5003095;28;20036;-37
2023/12/16 06:30:57;;;;;;;10.80;3.33;;;;;;;19.15;57.93;103791.88;5009294;28;20033;-37
2023/12/16 06:33:22;;;;;;;9.73;3.47;;;;;;;19.15;57.71;103799.31;5000864;28;20568;-38
2023/12/16 06:35:49;;;;;;;14.95;3.55;;;;;;;19.14;57.83;103800.34;5004368;28;20045;-38
2023/12/16 06:38:14;;;;;;;11.98;3.65;;;;;;;19.13;57.96;103809.66;5007795;28;20475;-37
2023/12/16 06:40:40;;;;;;;7.97;3.08;;;;;;;19.11;58.14;103798.88;5009069;28;20040;-37
2023/12/16 06:43:05;;;;;;;11.80;3.30;;;;;;;19.10;57.83;103808.19;5002746;28;20088;-38
2023/12/16 06:45:31;;;;;;;10.13;3.33;;;;;;;19.08;57.76;103808.41;5006896;28;20880;-38
2023/12/16 06:47:57;;;;;;;9.02;3.25;;;;;;;19.05;57.81;103803.31;4999056;28;20061;-39
2023/12/16 06:50:23;;;;;;;10.18;3.17;;;;;;;19.06;57.88;103809.69;4996844;28;20073;-37
2023/12/16 06:52:48;;;;;;;11.52;3.53;;;;;;;19.05;58.09;103810.72;5012230;28;20021;-38
2023/12/16 06:55:14;;;;;;;8.63;3.20;;;;;;;19.03;57.82;103816.44;4984607;28;20457;-37
2023/12/16 06:57:39;;;;;;;9.40;3.40;;;;;;;19.02;58.10;103816.66;5012390;28;20029;-38
2023/12/16 07:00:06;;;;;;;11.15;3.20;;;;;;;19.01;58.17;103817.72;5000583;28;20026;-38
2023/12/16 07:02:32;;;;;;;11.13;3.60;;;;;;;18.97;58.27;103814.53;4999101;28;20030;-37
2023/12/16 07:04:57;;;;;;;12.13;3.45;;;;;;;18.94;57.95;103811.38;5015102;28;20490;-37
2023/12/16 07:07:24;;;;;;;12.88;3.55;;;;;;;18.95;58.37;103826.81;4986389;28;20375;-38
2023/12/16 07:09:50;;;;;;;11.93;3.40;;;;;;;18.92;58.69;103820.66;5003473;28;20411;-39
2023/12/16 07:12:15;;;;;;;13.90;3.35;;;;;;;18.90;58.79;103825.50;5002671;28;20033;-38
2023/12/16 07:14:42;;;;;;;9.27;3.28;;;;;;;18.89;58.81;103820.22;4988123;28;20410;-38
2023/12/16 07:17:07;;;;;;;11.02;3.20;;;;;;;18.87;59.04;103816.81;5005472;28;20100;-37
2023/12/16 07:19:34;;;;;;;11.60;3.40;;;;;;;18.85;58.88;103824.44;4990209;28;20486;-39
2023/12/16 07:21:59;;;;;;;8.00;3.15;;;;;;;18.82;59.13;103817.47;4988395;28;20050;-37
2023/12/16 07:24:25;;;;;;;13.05;3.00;;;;;;;18.80;59.21;103815.97;5001488;28;20060;-38
2023/12/16 07:26:50;;;;;;;12.45;3.40;;;;;;;18.77;59.11;103825.47;4988002;28;20057;-37
2023/12/16 07:29:16;;;;;;;16.88;3.65;;;;;;;18.74;58.98;103826.75;5000367;28;20034;-38
2023/12/16 07:31:46;;;;;;;11.52;3.22;;;;;;;18.73;59.19;103829.72;4984838;28;20041;-37
2023/12/16 07:34:12;;;;;;;10.25;3.05;;;;;;;18.71;58.84;103838.19;5008211;28;20241;-37
2023/12/16 07:36:37;;;;;;;14.45;3.60;;;;;;;18.69;58.88;103829.28;5014149;28;20083;-37
2023/12/16 07:39:02;;;;;;;22.02;4.05;;;;;;;18.67;58.84;103842.38;5021750;28;20084;-38
2023/12/16 07:41:28;;;;;;;13.38;3.60;;;;;;;18.65;58.83;103840.91;5010045;28;20037;-38
2023/12/16 07:43:53;;;;;;;10.50;3.17;;;;;;;18.62;59.00;103833.91;4988104;28;20036;-39
2023/12/16 07:46:19;;;;;;;13.63;3.80;;;;;;;18.59;59.00;103828.84;5006621;28;20405;-39
2023/12/16 07:48:44;;;;;;;11.70;3.15;;;;;;;18.56;59.05;103816.38;4986826;28;20034;-38
2023/12/16 07:51:16;;;;;;;12.98;3.53;;;;;;;18.54;59.23;103824.00;4989534;28;20072;-37
2023/12/16 07:53:43;;;;;;;9.10;3.13;;;;;;;18.54;59.58;103831.38;5021095;28;20031;-38
2023/12/16 07:56:24;;;;;;;12.27;3.30;;;;;;;18.56;59.41;103834.75;5011577;28;20038;-39
2023/12/16 07:58:50;;;;;;;11.63;3.22;;;;;;;18.59;59.62;103821.44;4999981;28;20029;-37
2023/12/16 08:01:16;;;;;;;14.20;3.20;;;;;;;18.63;59.79;103826.53;4999916;28;20522;-37
2023/12/16 08:03:42;;;;;;;11.27;3.65;;;;;;;18.66;59.71;103821.44;4964547;28;20025;-38
2023/12/16 08:06:11;;;;;;;13.27;4.05;;;;;;;18.70;59.95;103828.22;5004938;28;20076;-38
2023/12/16 08:08:38;;;;;;;13.32;3.90;;;;;;;18.76;59.84;103837.53;4989417;28;20565;-38
2023/12/16 08:11:04;;;;;;;9.60;3.67;;;;;;;18.79;59.93;103837.13;5003805;28;20501;-38
2023/12/16 08:13:30;;;;;;;10.25;3.53;;;;;;;18.83;60.44;103841.13;5007447;28;20030;-39
2023/12/16 08:15:55;;;;;;;14.30;3.83;;;;;;;18.86;60.37;103837.97;5003513;28;20523;-38
2023/12/16 08:18:20;;;;;;;12.02;3.75;;;;;;;18.89;60.18;103840.28;5004460;28;20069;-38
2023/12/16 08:20:46;;;;;;;16.42;3.92;;;;;;;18.90;60.32;103843.91;5001026;28;20488;-39
2023/12/16 08:23:11;;;;;;;13.50;3.75;;;;;;;18.90;60.32;103830.97;4984731;28;20038;-38
2023/12/16 08:25:37;;;;;;;12.27;3.92;;;;;;;18.90;60.41;103835.66;4983404;28;20494;-39
2023/12/16 08:28:02;;;;;;;12.95;3.65;;;;;;;18.88;60.37;103833.13;4983433;28;20030;-37
2023/12/16 08:30:28;;;;;;;14.20;3.75;;;;;;;18.88;60.27;103837.75;4984018;28;20041;-38
2023/12/16 08:32:53;;;;;;;10.93;3.28;;;;;;;18.88;60.68;103854.25;4984579;28;20029;-37
2023/12/16 08:35:19;;;;;;;10.77;3.42;;;;;;;18.88;60.74;103857.84;4985183;28;20069;-37
2023/12/16 08:37:44;;;;;;;12.45;3.33;;;;;;;18.88;60.86;103857.00;4985403;28;20034;-38
2023/12/16 08:40:10;;;;;;;13.55;4.03;;;;;;;18.87;60.62;103853.41;4982885;28;20034;-37
2023/12/16 08:42:36;;;;;;;17.55;3.60;;;;;;;18.86;60.55;103851.72;4984571;28;20034;-39
2023/12/16 08:45:02;;;;;;;9.80;3.55;;;;;;;18.85;61.08;103851.94;4981552;28;20458;-36
2023/12/16 08:47:27;;;;;;;16.73;4.00;;;;;;;18.83;60.34;103860.38;4984602;28;20386;-36
2023/12/16 08:49:53;;;;;;;9.90;3.55;;;;;;;18.82;60.49;103855.09;4982126;28;20026;-36
2023/12/16 08:52:18;;;;;;;11.38;3.38;;;;;;;18.82;60.38;103866.06;4998886;28;20394;-37
2023/12/16 08:54:44;;;;;;;13.50;4.18;;;;;;;18.80;60.53;103863.53;4982003;28;20030;-39
2023/12/16 08:57:09;;;;;;;15.10;3.50;;;;;;;18.82;60.48;103866.06;4967155;28;20109;-39
2023/12/16 08:59:35;;;;;;;13.57;4.00;;;;;;;18.83;60.42;103870.53;4982826;28;20034;-38
2023/12/16 09:02:02;;;;;;;12.15;3.10;;;;;;;18.83;60.45;103876.00;4983008;28;20084;-38
2023/12/16 09:04:27;;;;;;;15.30;3.80;;;;;;;18.83;60.51;103878.75;4980141;28;20031;-37
2023/12/16 09:06:54;;;;;;;11.43;3.80;;;;;;;18.81;60.40;103884.47;4983758;28;20607;-37
2023/12/16 09:09:20;;;;;;;11.63;3.83;;;;;;;18.82;60.45;103882.56;4982130;28;20042;-37
2023/12/16 09:11:45;;;;;;;13.77;3.80;;;;;;;18.80;60.36;103892.91;4982735;28;20715;-46
2023/12/16 09:14:10;;;;;;;13.07;3.58;;;;;;;18.79;60.30;103900.31;4963377;28;20550;-37
2023/12/16 09:16:36;;;;;;;14.48;3.80;;;;;;;18.76;60.42;103893.34;4965502;28;20041;-37
2023/12/16 09:19:01;;;;;;;13.30;3.67;;;;;;;18.75;60.43;103902.63;4982520;28;20030;-37
2023/12/16 09:21:27;;;;;;;12.45;3.33;;;;;;;18.74;60.65;103914.66;4991130;28;20100;-37
2023/12/16 09:23:52;;;;;;;13.90;3.40;;;;;;;18.73;60.45;103912.13;4992581;28;20573;-37
2023/12/16 09:26:18;;;;;;;12.82;4.00;;;;;;;18.70;60.76;103918.91;5000383;28;20033;-36
2023/12/16 09:28:43;;;;;;;13.80;3.50;;;;;;;18.69;60.65;103908.97;5004339;28;20026;-38
2023/12/16 09:31:08;;;;;;;13.30;3.47;;;;;;;18.66;60.83;103900.28;5002209;28;20514;-39
2023/12/16 09:33:34;;;;;;;11.00;3.33;;;;;;;18.65;60.86;103906.81;5006272;28;20030;-38
2023/12/16 09:35:59;;;;;;;10.90;3.50;;;;;;;18.63;60.86;103909.78;4996623;28;20030;-39
2023/12/16 09:38:25;;;;;;;14.07;3.42;;;;;;;18.62;60.75;103905.34;4987001;28;20141;-39
2023/12/16 09:40:51;;;;;;;11.75;3.17;;;;;;;18.60;60.85;103912.94;5017298;28;20033;-38
2023/12/16 09:43:16;;;;;;;10.25;3.08;;;;;;;18.59;60.84;103922.25;5002625;28;20041;-38
2023/12/16 09:45:48;;;;;;;10.48;3.13;;;;;;;18.57;60.88;103922.44;5002101;28;20470;-37
2023/12/16 09:48:17;;;;;;;11.10;3.40;;;;;;;18.57;61.10;103921.59;4999844;28;20060;-38
2023/12/16 09:50:44;;;;;;;10.02;3.00;;;;;;;18.56;61.07;103937.22;5003649;28;20025;-37
2023/12/16 09:53:10;;;;;;;13.93;3.00;;;;;;;18.56;60.80;103930.91;5004394;28;20048;-37
2023/12/16 09:55:35;;;;;;;9.73;3.20;;;;;;;18.57;61.11;103935.34;4986688;28;20360;-37
2023/12/16 09:58:02;;;;;;;10.77;3.15;;;;;;;18.57;60.85;103941.66;5005860;28;20029;-37
2023/12/16 10:00:30;;;;;;;10.00;3.00;;;;;;;18.56;61.06;103933.63;5009416;28;20036;-36
2023/12/16 10:02:57;;;;;;;9.45;3.10;;;;;;;18.55;61.04;103932.81;4985344;28;20269;-37
2023/12/16 10:05:26;;;;;;;11.75;3.35;;;;;;;18.55;60.89;103934.69;4969844;28;20286;-37
2023/12/16 10:08:02;;;;;;;6.72;3.13;;;;;;;18.54;61.15;103936.59;4984653;28;20054;-38
2023/12/16 10:10:28;;;;;;;9.98;3.08;;;;;;;18.54;60.97;103931.09;5002626;28;20038;-38
2023/12/16 10:12:53;;;;;;;10.57;3.17;;;;;;;18.53;61.22;103932.16;4986894;28;20045;-37
2023/12/16 10:15:30;;;;;;;10.10;2.92;;;;;;;18.53;61.18;103934.91;5006869;28;20033;-38
2023/12/16 10:17:56;;;;;;;10.30;3.15;;;;;;;18.53;60.99;103934.91;4989500;28;20080;-38
2023/12/16 10:20:21;;;;;;;10.57;2.97;;;;;;;18.53;61.35;103942.31;4999851;28;20414;-37
2023/12/16 10:22:47;;;;;;;9.73;3.30;;;;;;;18.53;61.25;103942.31;5013606;28;20045;-39
2023/12/16 10:25:13;;;;;;;10.25;3.20;;;;;;;18.52;61.24;103938.69;5002782;28;20065;-38
2023/12/16 10:27:41;;;;;;;11.77;3.40;;;;;;;18.52;61.42;103935.13;4967921;28;20114;-38
2023/12/16 10:30:07;;;;;;;10.85;2.70;;;;;;;18.52;61.41;103940.63;5007820;28;20025;-36
2023/12/16 10:32:33;;;;;;;7.63;2.67;;;;;;;18.52;61.62;103940.63;4990041;28;20044;-37
2023/12/16 10:35:02;;;;;;;7.70;2.83;;;;;;;18.51;61.44;103941.66;5007207;28;20030;-37
2023/12/16 10:37:27;;;;;;;8.88;2.97;;;;;;;18.51;61.39;103941.66;5009066;28;20033;-37
2023/12/16 10:39:53;;;;;;;10.93;3.17;;;;;;;18.49;61.96;103933.63;5001657;28;20021;-37
2023/12/16 10:42:18;;;;;;;14.30;3.42;;;;;;;18.48;61.92;103937.44;4985310;28;20391;-38
2023/12/16 10:44:44;;;;;;;10.95;3.40;;;;;;;18.47;62.11;103923.88;5002421;28;20034;-38
2023/12/16 10:47:11;;;;;;;19.05;3.40;;;;;;;18.47;62.23;103919.25;5006835;28;20072;-39
2023/12/16 10:49:40;;;;;;;13.98;3.80;;;;;;;18.46;62.01;103920.28;4984856;28;20068;-38
2023/12/16 10:52:09;;;;;;;13.43;3.15;;;;;;;18.48;62.27;103917.34;4984140;28;20030;-38
2023/12/16 10:55:02;;;;;;;13.73;3.88;;;;;;;18.51;61.99;103904.03;4983182;28;20044;-38
2023/12/16 10:57:34;;;;;;;18.30;4.05;;;;;;;18.54;62.13;103906.38;4982250;28;20137;-37
2023/12/16 11:00:04;;;;;;;15.55;4.25;;;;;;;18.57;62.27;103910.63;5002223;28;20026;-37
2023/12/16 11:02:30;;;;;;;15.48;3.92;;;;;;;18.59;62.49;103903.88;5017532;28;20148;-38
2023/12/16 11:05:03;;;;;;;12.57;4.07;;;;;;;18.61;62.29;103906.41;5000405;28;20387;-38
2023/12/16 11:07:29;;;;;;;14.63;4.03;;;;;;;18.66;62.21;103897.53;4967753;28;20037;-36
2023/12/16 11:09:55;;;;;;;13.45;4.30;;;;;;;18.66;62.43;103897.53;4984275;28;20030;-37
2023/12/16 11:12:21;;;;;;;11.43;3.75;;;;;;;18.69;62.56;103891.63;5003517;28;20041;-38
2023/12/16 11:14:47;;;;;;;13.05;4.35;;;;;;;18.70;62.45;103890.56;5004365;28;20040;-37
2023/12/16 11:18:08;;;;;;;13.43;4.30;;;;;;;18.70;62.50;103885.94;5003618;28;20030;-37